Time;durP1;ratioP1;P1;durP2;ratioP2;P2;SDS_P1;SDS_P2;PMS_P1;PMS_P2;Temp;Humidity;BMP_temperature;BMP_pressure;BME280_temperature;BME280_humidity;BME280_pressure;Samples;Min_cycle;Max_cycle;Signal;HPM_P1;HPM_P2
2022/06/03 00:02:09;;;;;;;4.80;3.22;;;;;;;;;;5032055;28;20060;-74
2022/06/03 00:04:53;;;;;;;4.18;2.97;;;;;;;;;;5032084;28;20021;-75
2022/06/03 00:07:23;;;;;;;4.20;3.10;;;;;;;;;;5032109;28;20021;-74
2022/06/03 00:10:09;;;;;;;5.97;3.00;;;;;;;;;;5032049;28;20068;-75
2022/06/03 00:12:38;;;;;;;3.72;3.08;;;;;;;;;;5031855;28;20486;-74
2022/06/03 00:15:08;;;;;;;4.18;3.05;;;;;;;;;;5031933;28;20022;-74
2022/06/03 00:17:55;;;;;;;3.72;2.97;;;;;;;;;;5031782;28;20017;-75
2022/06/03 00:20:31;;;;;;;4.85;2.85;;;;;;;;;;5031845;28;20030;-74
2022/06/03 00:23:23;;;;;;;4.88;3.15;;;;;;;;;;5031950;28;20025;-74
2022/06/03 00:26:08;;;;;;;5.93;3.25;;;;;;;;;;5031739;28;20029;-74
2022/06/03 00:28:53;;;;;;;5.97;2.88;;;;;;;;;;5031801;28;20026;-74
2022/06/03 00:31:22;;;;;;;10.02;3.20;;;;;;;;;;5031384;28;20116;-75
2022/06/03 00:34:07;;;;;;;6.25;2.85;;;;;;;;;;5031656;28;20021;-74
2022/06/03 00:36:45;;;;;;;5.47;2.72;;;;;;;;;;5031660;28;20033;-74
2022/06/03 00:39:30;;;;;;;8.50;2.92;;;;;;;;;;5031445;28;20041;-75
2022/06/03 00:42:07;;;;;;;4.97;3.10;;;;;;;;;;5031408;28;20079;-74
2022/06/03 00:44:45;;;;;;;10.27;3.22;;;;;;;;;;5031708;28;20494;-74
2022/06/03 00:47:30;;;;;;;5.75;3.03;;;;;;;;;;5031475;28;20025;-75
2022/06/03 00:50:22;;;;;;;9.25;3.33;;;;;;;;;;5031381;28;20376;-75
2022/06/03 00:53:08;;;;;;;8.52;3.03;;;;;;;;;;5008458;28;20038;-74
2022/06/03 00:55:42;;;;;;;4.57;3.28;;;;;;;;;;5031271;28;20034;-74
2022/06/03 00:58:14;;;;;;;7.40;3.05;;;;;;;;;;5031494;28;20948;-74
2022/06/03 01:00:54;;;;;;;3.30;2.40;;;;;;;;;;5031304;28;20034;-74
2022/06/03 01:03:20;;;;;;;4.97;3.28;;;;;;;;;;5031563;28;20116;-75
2022/06/03 01:05:52;;;;;;;4.95;3.05;;;;;;;;;;5032700;28;20405;-75
2022/06/03 01:08:35;;;;;;;5.68;2.50;;;;;;;;;;5033303;28;20044;-74
2022/06/03 01:11:05;;;;;;;4.22;2.42;;;;;;;;;;5051224;28;20120;-74
2022/06/03 01:13:43;;;;;;;5.80;2.90;;;;;;;;;;5051267;28;20040;-75
2022/06/03 01:16:26;;;;;;;5.82;2.72;;;;;;;;;;5051212;28;20025;-74
2022/06/03 01:18:55;;;;;;;5.80;2.33;;;;;;;;;;5051111;28;20091;-74
2022/06/03 01:21:39;;;;;;;8.10;2.97;;;;;;;;;;5051211;28;20032;-74
2022/06/03 01:24:11;;;;;;;3.42;2.40;;;;;;;;;;5051190;28;20544;-75
2022/06/03 01:26:56;;;;;;;5.82;2.83;;;;;;;;;;5051182;28;20160;-75
2022/06/03 01:29:31;;;;;;;4.63;2.70;;;;;;;;;;5051106;28;20439;-75
2022/06/03 01:32:17;;;;;;;6.35;2.58;;;;;;;;;;5050855;28;20044;-74
2022/06/03 01:35:02;;;;;;;6.30;2.70;;;;;;;;;;5032929;28;20021;-75
2022/06/03 01:37:47;;;;;;;6.05;2.80;;;;;;;;;;5032946;28;20033;-75
2022/06/03 01:40:16;;;;;;;10.02;2.63;;;;;;;;;;5050991;28;20060;-74
2022/06/03 01:42:52;;;;;;;3.40;2.20;;;;;;;;;;5050939;28;20033;-74
2022/06/03 01:45:33;;;;;;;4.38;2.20;;;;;;;;;;5051099;28;20033;-74
2022/06/03 01:48:02;;;;;;;3.50;2.28;;;;;;;;;;5054585;28;20033;-75
2022/06/03 01:50:47;;;;;;;4.55;2.67;;;;;;;;;;5054613;28;20036;-75
2022/06/03 01:53:25;;;;;;;4.95;2.58;;;;;;;;;;5054539;28;20025;-74
2022/06/03 01:55:55;;;;;;;5.50;2.35;;;;;;;;;;5054517;28;20025;-74
2022/06/03 01:58:39;;;;;;;4.63;2.58;;;;;;;;;;5054475;28;20025;-74
2022/06/03 02:01:24;;;;;;;3.40;2.35;;;;;;;;;;5054504;28;20044;-74
2022/06/03 02:04:01;;;;;;;3.75;2.45;;;;;;;;;;5054535;28;20029;-75
2022/06/03 02:06:46;;;;;;;5.57;2.90;;;;;;;;;;5050371;28;20478;-74
2022/06/03 02:09:20;;;;;;;3.70;2.40;;;;;;;;;;5054417;28;20029;-74
2022/06/03 02:11:57;;;;;;;5.40;3.22;;;;;;;;;;5036069;28;20408;-74
2022/06/03 02:14:42;;;;;;;5.82;3.08;;;;;;;;;;5054275;28;20047;-74
2022/06/03 02:17:08;;;;;;;5.03;3.30;;;;;;;;;;5054238;28;20037;-74
2022/06/03 02:19:52;;;;;;;4.35;2.50;;;;;;;;;;5054261;28;20083;-75
2022/06/03 02:22:21;;;;;;;6.88;2.97;;;;;;;;;;5054004;28;20057;-74
2022/06/03 02:24:56;;;;;;;4.00;2.50;;;;;;;;;;5054144;28;20027;-74
2022/06/03 02:27:25;;;;;;;6.32;2.58;;;;;;;;;;5054113;28;20033;-74
2022/06/03 02:32:50;;;;;;;3.40;2.35;;;;;;;;;;5033973;28;20037;-74
2022/06/03 02:35:41;;;;;;;6.55;2.40;;;;;;;;;;5033840;28;20033;-74
2022/06/03 02:38:10;;;;;;;4.25;2.42;;;;;;;;;;5033844;28;20368;-75
2022/06/03 02:40:45;;;;;;;5.40;2.60;;;;;;;;;;5033921;28;20089;-74
2022/06/03 02:43:14;;;;;;;7.30;2.47;;;;;;;;;;5033849;28;20044;-75
2022/06/03 02:45:40;;;;;;;5.95;2.70;;;;;;;;;;5033851;28;20072;-74
2022/06/03 02:48:06;;;;;;;5.70;2.53;;;;;;;;;;5033733;28;20048;-75
2022/06/03 02:50:51;;;;;;;3.97;2.80;;;;;;;;;;5033457;28;20037;-75
2022/06/03 02:53:35;;;;;;;4.93;2.70;;;;;;;;;;5033659;28;20033;-75
2022/06/03 02:56:07;;;;;;;3.83;2.60;;;;;;;;;;5033475;28;20018;-75
2022/06/03 02:58:34;;;;;;;3.85;2.72;;;;;;;;;;5014517;28;20341;-75
2022/06/03 03:01:12;;;;;;;6.15;2.85;;;;;;;;;;5033386;28;20366;-74
2022/06/03 03:03:47;;;;;;;4.38;2.78;;;;;;;;;;5033555;28;20412;-74
2022/06/03 03:06:19;;;;;;;4.00;2.42;;;;;;;;;;5050455;28;20102;-74
2022/06/03 03:08:55;;;;;;;6.10;2.97;;;;;;;;;;5053189;28;20142;-75
2022/06/03 03:11:31;;;;;;;5.63;2.70;;;;;;;;;;5035039;28;20040;-74
2022/06/03 03:14:06;;;;;;;5.13;2.90;;;;;;;;;;5053145;28;20017;-74
2022/06/03 03:16:38;;;;;;;6.88;3.35;;;;;;;;;;5053143;28;20033;-75
2022/06/03 03:19:12;;;;;;;5.97;3.25;;;;;;;;;;5053016;28;20028;-74
2022/06/03 03:21:46;;;;;;;6.53;2.90;;;;;;;;;;5053168;28;20068;-75
2022/06/03 03:24:18;;;;;;;5.15;2.72;;;;;;;;;;5053141;28;20029;-74
2022/06/03 03:26:47;;;;;;;9.43;3.03;;;;;;;;;;5052878;28;20107;-74
2022/06/03 03:29:19;;;;;;;6.18;3.42;;;;;;;;;;5052910;28;20029;-75
2022/06/03 03:32:04;;;;;;;4.45;2.80;;;;;;;;;;5036089;28;20435;-74
2022/06/03 03:34:45;;;;;;;8.85;3.38;;;;;;;;;;5015192;28;20592;-74
2022/06/03 03:37:30;;;;;;;7.78;3.45;;;;;;;;;;5032727;28;20091;-74
2022/06/03 03:40:05;;;;;;;8.10;3.30;;;;;;;;;;5032808;28;20045;-74
2022/06/03 03:42:37;;;;;;;4.97;3.10;;;;;;;;;;5032695;28;20100;-74
2022/06/03 03:45:03;;;;;;;6.40;2.90;;;;;;;;;;5032710;28;20026;-75
2022/06/03 03:47:42;;;;;;;6.00;3.15;;;;;;;;;;5032556;28;20525;-74
2022/06/03 03:50:35;;;;;;;7.35;3.35;;;;;;;;;;5032409;28;20037;-75
2022/06/03 03:53:19;;;;;;;5.50;3.30;;;;;;;;;;4992475;28;20038;-74
2022/06/03 03:56:04;;;;;;;4.93;3.08;;;;;;;;;;5032340;28;20456;-74
2022/06/03 03:58:39;;;;;;;6.72;3.38;;;;;;;;;;5031944;28;20036;-74
2022/06/03 04:01:08;;;;;;;5.50;3.20;;;;;;;;;;5032131;28;20117;-74
2022/06/03 04:03:37;;;;;;;7.20;3.33;;;;;;;;;;5032015;28;20116;-75
2022/06/03 04:06:06;;;;;;;7.97;3.50;;;;;;;;;;5047580;28;20051;-75
2022/06/03 04:08:46;;;;;;;4.93;3.40;;;;;;;;;;5051821;28;20040;-75
2022/06/03 04:11:12;;;;;;;5.25;3.40;;;;;;;;;;5051954;28;20040;-75
2022/06/03 04:13:44;;;;;;;6.50;3.60;;;;;;;;;;5052193;28;20033;-75
2022/06/03 04:16:23;;;;;;;5.68;3.90;;;;;;;;;;5034073;28;20017;-75
2022/06/03 04:19:04;;;;;;;5.78;3.60;;;;;;;;;;5051983;28;20356;-75
2022/06/03 04:21:36;;;;;;;7.22;3.80;;;;;;;;;;5033737;28;20025;-75
2022/06/03 04:24:05;;;;;;;7.47;3.50;;;;;;;;;;5051950;28;20061;-75
2022/06/03 04:26:50;;;;;;;6.65;3.58;;;;;;;;;;5051784;28;20028;-74
2022/06/03 04:29:34;;;;;;;7.82;3.90;;;;;;;;;;5051779;28;20108;-75
2022/06/03 04:32:06;;;;;;;4.97;3.35;;;;;;;;;;5051027;28;20185;-75
2022/06/03 04:34:51;;;;;;;9.82;4.10;;;;;;;;;;5051734;28;20498;-75
2022/06/03 04:37:36;;;;;;;6.10;4.00;;;;;;;;;;5051399;28;20066;-75
2022/06/03 04:40:20;;;;;;;5.47;3.60;;;;;;;;;;5032001;28;20028;-76
2022/06/03 04:42:55;;;;;;;6.20;3.85;;;;;;;;;;5050620;28;20013;-76
2022/06/03 04:45:34;;;;;;;10.57;4.10;;;;;;;;;;5047018;28;20017;-75
2022/06/03 04:48:18;;;;;;;7.22;3.70;;;;;;;;;;5049767;28;20033;-75
2022/06/03 04:51:03;;;;;;;5.70;3.55;;;;;;;;;;5047440;28;20099;-76
2022/06/03 04:53:47;;;;;;;7.82;4.05;;;;;;;;;;5050951;28;20104;-76
2022/06/03 04:56:21;;;;;;;7.28;3.70;;;;;;;;;;5048447;28;20029;-76
2022/06/03 04:58:56;;;;;;;5.90;3.47;;;;;;;;;;5051136;28;20409;-75
2022/06/03 05:01:41;;;;;;;6.07;3.10;;;;;;;;;;5051360;28;20048;-75
2022/06/03 05:04:22;;;;;;;7.38;3.45;;;;;;;;;;5047691;28;20060;-75
2022/06/03 05:06:54;;;;;;;6.60;3.90;;;;;;;;;;5050451;28;20053;-76
2022/06/03 05:09:39;;;;;;;5.07;2.95;;;;;;;;;;5050992;28;20060;-76
2022/06/03 05:12:23;;;;;;;7.60;3.60;;;;;;;;;;5032048;28;20037;-75
2022/06/03 05:15:16;;;;;;;5.15;3.15;;;;;;;;;;5047715;28;20109;-76
2022/06/03 05:17:43;;;;;;;;;;;;;;;;;;5019860;28;20417;-75
2022/06/03 05:20:28;;;;;;;6.22;3.03;;;;;;;;;;5050986;28;20004;-76
2022/06/03 05:22:57;;;;;;;6.00;3.25;;;;;;;;;;5036862;28;20028;-75
2022/06/03 05:25:23;;;;;;;5.50;3.17;;;;;;;;;;5036714;28;20028;-75
2022/06/03 05:27:49;;;;;;;6.45;3.13;;;;;;;;;;5054891;28;20387;-76
2022/06/03 05:30:34;;;;;;;5.13;3.05;;;;;;;;;;5054674;28;20053;-76
2022/06/03 05:33:06;;;;;;;5.55;3.10;;;;;;;;;;5053121;28;20025;-76
2022/06/03 05:35:53;;;;;;;5.47;2.75;;;;;;;;;;5055110;28;20040;-76
2022/06/03 05:38:19;;;;;;;6.28;3.10;;;;;;;;;;5052686;28;20049;-76
2022/06/03 05:40:45;;;;;;;7.60;3.03;;;;;;;;;;5036405;28;20049;-76
2022/06/03 05:43:17;;;;;;;5.03;2.75;;;;;;;;;;5054679;28;20021;-75
2022/06/03 05:45:58;;;;;;;6.40;2.90;;;;;;;;;;5054651;28;20021;-76
2022/06/03 05:48:24;;;;;;;4.38;2.90;;;;;;;;;;5053579;28;20021;-76
2022/06/03 05:50:56;;;;;;;5.13;2.97;;;;;;;;;;5036093;28;20044;-76
2022/06/03 05:53:38;;;;;;;6.00;2.85;;;;;;;;;;5054305;28;20372;-76
2022/06/03 05:56:04;;;;;;;5.22;3.30;;;;;;;;;;5047246;28;20116;-76
2022/06/03 05:58:40;;;;;;;6.40;2.97;;;;;;;;;;5053965;28;20108;-77
2022/06/03 06:01:25;;;;;;;6.63;3.00;;;;;;;;;;5035917;28;20052;-75
2022/06/03 06:04:04;;;;;;;6.50;2.70;;;;;;;;;;5053940;28;20029;-75
2022/06/03 06:06:56;;;;;;;5.70;2.67;;;;;;;;;;5051568;28;20462;-75
2022/06/03 06:09:40;;;;;;;7.55;2.80;;;;;;;;;;5008730;28;20044;-76
2022/06/03 06:12:12;;;;;;;6.22;2.67;;;;;;;;;;5053004;28;20352;-76
2022/06/03 06:15:02;;;;;;;4.78;2.63;;;;;;;;;;5050201;28;20041;-75
2022/06/03 06:17:38;;;;;;;3.67;2.53;;;;;;;;;;4992337;28;20034;-75
2022/06/03 06:20:30;;;;;;;5.10;2.83;;;;;;;;;;4992464;28;20070;-75
2022/06/03 06:23:02;;;;;;;4.38;2.33;;;;;;;;;;4977958;28;20127;-75
2022/06/03 06:25:39;;;;;;;4.60;2.42;;;;;;;;;;4992685;28;20045;-76
2022/06/03 06:28:11;;;;;;;4.43;2.30;;;;;;;;;;4992233;28;20412;-76
2022/06/03 06:30:56;;;;;;;4.20;2.38;;;;;;;;;;4991663;28;20621;-75
2022/06/03 06:33:24;;;;;;;3.17;2.08;;;;;;;;;;4992165;28;20078;-75
2022/06/03 06:35:56;;;;;;;6.07;2.88;;;;;;;;;;4992113;28;20040;-76
2022/06/03 06:38:30;;;;;;;4.47;2.20;;;;;;;;;;4992179;28;20065;-75
2022/06/03 06:41:06;;;;;;;3.20;1.98;;;;;;;;;;4992108;28;20053;-76
2022/06/03 06:43:38;;;;;;;4.07;2.58;;;;;;;;;;4992270;28;20038;-75
2022/06/03 06:46:10;;;;;;;3.95;2.17;;;;;;;;;;4991930;28;20034;-76
2022/06/03 06:48:51;;;;;;;2.90;2.38;;;;;;;;;;4992082;28;20125;-76
2022/06/03 06:51:28;;;;;;;5.47;2.20;;;;;;;;;;4991964;28;20038;-76
2022/06/03 06:53:58;;;;;;;5.70;2.42;;;;;;;;;;5003207;28;20056;-76
2022/06/03 06:56:24;;;;;;;8.05;2.65;;;;;;;;;;5033634;28;20029;-75
2022/06/03 06:58:56;;;;;;;3.15;2.30;;;;;;;;;;5033591;28;20025;-75
2022/06/03 07:01:25;;;;;;;4.20;2.08;;;;;;;;;;5042613;28;20028;-77
2022/06/03 07:03:51;;;;;;;5.40;2.10;;;;;;;;;;5034221;28;20025;-76
2022/06/03 07:06:29;;;;;;;3.92;1.90;;;;;;;;;;5051952;28;20033;-76
2022/06/03 07:08:58;;;;;;;4.95;2.65;;;;;;;;;;5051922;28;20025;-76
2022/06/03 07:11:36;;;;;;;4.88;2.10;;;;;;;;;;5052253;28;20107;-76
2022/06/03 07:14:07;;;;;;;7.88;2.10;;;;;;;;;;5052637;28;20020;-73
2022/06/03 07:19:49;;;;;;;4.57;2.53;;;;;;;;;;5049817;28;20070;-77
2022/06/03 07:22:26;;;;;;;4.07;2.38;;;;;;;;;;5052725;28;20017;-75
2022/06/03 07:25:10;;;;;;;3.47;2.15;;;;;;;;;;5046054;28;20025;-75
2022/06/03 07:27:45;;;;;;;4.10;2.08;;;;;;;;;;5050823;28;20037;-75
2022/06/03 07:30:17;;;;;;;2.92;2.03;;;;;;;;;;5052179;28;20017;-75
2022/06/03 07:32:45;;;;;;;6.40;2.00;;;;;;;;;;5049964;28;20045;-75
2022/06/03 07:35:19;;;;;;;4.28;2.22;;;;;;;;;;5052852;28;20070;-75
2022/06/03 07:37:45;;;;;;;7.05;2.10;;;;;;;;;;5034256;28;20534;-75
2022/06/03 07:40:16;;;;;;;4.03;2.47;;;;;;;;;;5052679;28;20033;-75
2022/06/03 07:42:48;;;;;;;3.58;2.10;;;;;;;;;;5034541;28;20108;-75
2022/06/03 07:45:17;;;;;;;3.05;2.13;;;;;;;;;;5052130;28;20025;-76
2022/06/03 07:47:44;;;;;;;6.63;2.30;;;;;;;;;;5049992;28;20074;-76
2022/06/03 07:50:15;;;;;;;3.60;1.98;;;;;;;;;;5052063;28;20132;-76
2022/06/03 07:53:07;;;;;;;4.45;2.08;;;;;;;;;;5052028;28;20017;-74
2022/06/03 07:55:35;;;;;;;3.78;2.22;;;;;;;;;;5047677;28;20129;-74
2022/06/03 07:58:06;;;;;;;3.38;2.35;;;;;;;;;;5031662;28;20382;-74
2022/06/03 08:00:40;;;;;;;3.53;1.73;;;;;;;;;;5052501;28;20021;-78
2022/06/03 08:03:14;;;;;;;5.32;1.90;;;;;;;;;;5034512;28;20032;-78
2022/06/03 08:05:42;;;;;;;4.60;2.30;;;;;;;;;;5031488;28;20025;-78
2022/06/03 08:11:00;;;;;;;3.10;2.40;;;;;;;;;;5032323;28;20447;-78
2022/06/03 08:13:27;;;;;;;5.53;2.40;;;;;;;;;;5032561;28;20479;-79
2022/06/03 08:15:56;;;;;;;6.03;2.30;;;;;;;;;;5032494;28;20027;-79
2022/06/03 08:18:22;;;;;;;9.38;2.42;;;;;;;;;;5032764;28;20113;-79
2022/06/03 08:20:54;;;;;;;5.13;2.33;;;;;;;;;;5038017;28;20297;-79
2022/06/03 08:23:20;;;;;;;4.50;2.30;;;;;;;;;;5050571;28;20091;-81
2022/06/03 08:25:48;;;;;;;4.00;1.95;;;;;;;;;;5053183;28;20017;-80
2022/06/03 08:28:16;;;;;;;4.22;2.03;;;;;;;;;;5052503;28;20036;-80
2022/06/03 08:30:48;;;;;;;4.72;2.55;;;;;;;;;;5047975;28;20811;-77
2022/06/03 08:33:16;;;;;;;4.03;2.35;;;;;;;;;;5051447;28;20025;-79
2022/06/03 08:35:46;;;;;;;5.75;2.42;;;;;;;;;;5033011;28;20039;-78
2022/06/03 08:38:21;;;;;;;5.57;2.65;;;;;;;;;;5051207;28;20095;-78
2022/06/03 08:40:47;;;;;;;3.30;1.83;;;;;;;;;;5050791;28;20036;-78
2022/06/03 08:43:23;;;;;;;4.70;2.00;;;;;;;;;;5051165;28;20021;-78
2022/06/03 08:45:55;;;;;;;4.22;2.33;;;;;;;;;;5051159;28;20102;-78
2022/06/03 08:48:22;;;;;;;3.42;1.95;;;;;;;;;;5051457;28;20025;-78
2022/06/03 08:50:48;;;;;;;5.40;2.35;;;;;;;;;;5050951;28;20851;-78
2022/06/03 08:53:23;;;;;;;4.40;2.58;;;;;;;;;;5050955;28;20044;-78
2022/06/03 08:56:12;;;;;;;4.40;2.38;;;;;;;;;;5050109;28;20028;-78
2022/06/03 08:58:49;;;;;;;3.70;2.30;;;;;;;;;;4969882;28;20045;-78
2022/06/03 09:01:18;;;;;;;4.45;2.55;;;;;;;;;;4968935;28;20070;-78
2022/06/03 09:04:19;;;;;;;6.57;2.10;;;;;;;;;;4970154;28;20086;-75
2022/06/03 09:06:49;;;;;;;3.47;2.22;;;;;;;;;;4893772;29;20422;-78
2022/06/03 09:09:22;;;;;;;5.88;1.90;;;;;;;;;;4894045;29;20399;-78
2022/06/03 09:11:51;;;;;;;10.10;2.65;;;;;;;;;;4930111;29;20031;-78
2022/06/03 09:14:21;;;;;;;2.90;2.28;;;;;;;;;;4929657;29;20048;-78
2022/06/03 09:16:47;;;;;;;3.20;1.80;;;;;;;;;;4923570;29;20039;-78
2022/06/03 09:19:25;;;;;;;5.35;1.95;;;;;;;;;;4924888;29;20059;-78
2022/06/03 09:21:52;;;;;;;3.47;1.60;;;;;;;;;;4907912;29;20150;-78
2022/06/03 09:24:22;;;;;;;5.90;1.70;;;;;;;;;;4922214;29;20036;-78
2022/06/03 09:26:56;;;;;;;2.40;1.80;;;;;;;;;;4917568;29;20508;-79
2022/06/03 09:29:23;;;;;;;5.25;1.90;;;;;;;;;;4922827;29;20420;-78
2022/06/03 09:31:51;;;;;;;5.93;1.63;;;;;;;;;;4918333;29;20051;-78
2022/06/03 09:34:18;;;;;;;2.47;1.80;;;;;;;;;;4920761;29;20068;-77
2022/06/03 09:36:45;;;;;;;3.58;1.52;;;;;;;;;;4968251;28;20046;-78
2022/06/03 09:39:14;;;;;;;2.25;1.50;;;;;;;;;;4969469;28;20454;-78
2022/06/03 09:41:42;;;;;;;4.50;1.23;;;;;;;;;;5042004;28;20032;-78
2022/06/03 09:44:10;;;;;;;2.28;1.33;;;;;;;;;;5050596;28;20029;-78
2022/06/03 09:46:36;;;;;;;3.60;1.30;;;;;;;;;;5032616;28;20036;-78
2022/06/03 09:49:05;;;;;;;2.03;1.10;;;;;;;;;;5050812;28;20037;-78
2022/06/03 09:54:22;;;;;;;3.45;1.33;;;;;;;;;;5031215;28;20430;-78
2022/06/03 09:56:50;;;;;;;1.75;0.93;;;;;;;;;;5012951;28;20034;-77
2022/06/03 09:59:17;;;;;;;2.08;1.20;;;;;;;;;;5031241;28;20444;-79
2022/06/03 10:01:43;;;;;;;3.53;1.00;;;;;;;;;;5040645;28;20060;-78
2022/06/03 10:04:09;;;;;;;1.85;1.10;;;;;;;;;;5051277;28;20124;-80
2022/06/03 10:06:50;;;;;;;2.28;1.05;;;;;;;;;;5050673;28;20104;-80
2022/06/03 10:17:46;;;;;;;2.25;0.90;;;;;;;;;;5034516;28;20048;-77
2022/06/03 10:20:12;;;;;;;2.58;1.25;;;;;;;;;;5050958;28;20478;-77
2022/06/03 10:22:38;;;;;;;1.65;1.02;;;;;;;;;;5054352;28;20095;-78
2022/06/03 10:25:05;;;;;;;1.35;1.05;;;;;;;;;;5053643;28;20017;-77
2022/06/03 10:27:31;;;;;;;3.83;1.02;;;;;;;;;;5053703;28;20122;-77
2022/06/03 10:29:59;;;;;;;1.98;0.90;;;;;;;;;;5033633;28;20037;-78
2022/06/03 10:32:25;;;;;;;1.30;0.98;;;;;;;;;;5053288;28;20096;-77
2022/06/03 10:34:55;;;;;;;2.70;1.20;;;;;;;;;;5054041;28;20033;-78
2022/06/03 10:37:22;;;;;;;3.60;1.35;;;;;;;;;;5035595;28;20032;-78
2022/06/03 10:39:48;;;;;;;1.85;1.08;;;;;;;;;;5051576;28;20025;-80
2022/06/03 10:42:16;;;;;;;3.15;1.00;;;;;;;;;;5054251;28;20040;-79
2022/06/03 10:44:47;;;;;;;1.40;0.90;;;;;;;;;;5053947;28;20075;-78
2022/06/03 10:47:18;;;;;;;3.72;0.93;;;;;;;;;;5053716;28;20336;-78
2022/06/03 10:49:54;;;;;;;1.58;0.95;;;;;;;;;;5053678;28;20029;-79
2022/06/03 11:03:33;;;;;;;1.40;1.10;;;;;;;;;;5050875;28;20047;-74
2022/06/03 11:06:06;;;;;;;1.60;0.90;;;;;;;;;;5053028;28;20389;-75
2022/06/03 11:09:08;;;;;;;3.05;1.00;;;;;;;;;;5035339;28;20025;-77
2022/06/03 11:11:46;;;;;;;2.38;1.20;;;;;;;;;;4970569;28;20505;-78
2022/06/03 11:14:22;;;;;;;1.77;1.10;;;;;;;;;;4971826;28;20034;-77
2022/06/03 11:16:57;;;;;;;2.90;0.95;;;;;;;;;;4970878;28;20444;-78
2022/06/03 11:19:23;;;;;;;2.15;1.10;;;;;;;;;;4971317;28;20098;-75
2022/06/03 11:22:09;;;;;;;1.42;1.10;;;;;;;;;;4971689;28;20086;-75
2022/06/03 11:24:35;;;;;;;4.43;1.27;;;;;;;;;;4970022;28;20030;-75
2022/06/03 11:27:02;;;;;;;1.67;1.00;;;;;;;;;;4971254;28;20051;-75
2022/06/03 11:29:32;;;;;;;1.50;0.90;;;;;;;;;;4955207;28;20035;-75
2022/06/03 11:32:01;;;;;;;2.35;1.25;;;;;;;;;;4970151;28;20371;-74
2022/06/03 11:34:27;;;;;;;2.15;1.40;;;;;;;;;;4970664;28;20035;-75
2022/06/03 11:36:58;;;;;;;1.85;1.17;;;;;;;;;;4971307;28;20109;-75
2022/06/03 11:39:29;;;;;;;4.37;1.70;;;;;;;;;;4970951;28;20473;-75
2022/06/03 11:41:59;;;;;;;3.97;1.88;;;;;;;;;;4971228;28;20035;-74
2022/06/03 11:44:35;;;;;;;2.63;1.30;;;;;;;;;;4973737;28;20433;-75
2022/06/03 11:47:04;;;;;;;3.58;1.65;;;;;;;;;;5032347;28;20029;-75
2022/06/03 11:49:30;;;;;;;4.72;1.23;;;;;;;;;;5032385;28;20105;-75
2022/06/03 11:51:57;;;;;;;1.67;1.10;;;;;;;;;;5032098;28;20134;-74
2022/06/03 11:54:23;;;;;;;2.13;1.05;;;;;;;;;;5030701;28;20472;-74
2022/06/03 11:56:50;;;;;;;3.63;1.20;;;;;;;;;;5031841;28;20108;-75
2022/06/03 11:59:22;;;;;;;3.25;1.52;;;;;;;;;;5031921;28;20029;-74
2022/06/03 12:01:52;;;;;;;4.50;1.50;;;;;;;;;;5031805;28;20025;-75
2022/06/03 12:04:18;;;;;;;1.85;1.10;;;;;;;;;;5031937;28;20025;-74
2022/06/03 12:06:48;;;;;;;7.65;1.17;;;;;;;;;;5031895;28;20033;-74
2022/06/03 12:09:33;;;;;;;4.35;1.70;;;;;;;;;;5031842;28;20025;-74
2022/06/03 12:14:59;;;;;;;5.32;1.38;;;;;;;;;;5031760;28;20103;-75
2022/06/03 12:17:33;;;;;;;3.30;1.60;;;;;;;;;;5031550;28;20029;-74
2022/06/03 12:19:59;;;;;;;1.85;1.10;;;;;;;;;;5030468;28;20408;-75
2022/06/03 12:22:31;;;;;;;1.70;1.02;;;;;;;;;;5031979;28;20029;-75
2022/06/03 12:24:57;;;;;;;;;;;;;;;;;;5032253;28;20017;-75
2022/06/03 12:27:28;;;;;;;3.03;1.23;;;;;;;;;;5031711;28;19983;-75
2022/06/03 12:30:17;;;;;;;3.27;1.10;;;;;;;;;;5030053;28;20104;-75
2022/06/03 12:32:57;;;;;;;3.15;1.02;;;;;;;;;;5011583;28;20188;-75
2022/06/03 12:35:47;;;;;;;2.30;1.20;;;;;;;;;;5010771;28;20025;-75
2022/06/03 12:38:23;;;;;;;4.38;1.27;;;;;;;;;;5020295;28;20080;-75
2022/06/03 12:40:50;;;;;;;3.05;1.63;;;;;;;;;;5031417;28;20033;-75
2022/06/03 12:43:28;;;;;;;2.58;0.90;;;;;;;;;;5013692;28;20029;-76
2022/06/03 12:45:59;;;;;;;1.98;1.30;;;;;;;;;;5031275;28;20040;-74
2022/06/03 12:48:44;;;;;;;2.80;1.30;;;;;;;;;;5031335;28;20025;-74
2022/06/03 12:51:27;;;;;;;4.43;1.30;;;;;;;;;;5030981;28;20409;-74
2022/06/03 12:53:58;;;;;;;1.33;1.05;;;;;;;;;;5031164;28;20095;-74
2022/06/03 12:56:37;;;;;;;1.58;1.00;;;;;;;;;;5013313;28;20309;-75
2022/06/03 12:59:22;;;;;;;1.67;1.02;;;;;;;;;;5031096;28;20049;-75
2022/06/03 13:01:51;;;;;;;1.70;1.00;;;;;;;;;;5031035;28;20025;-75
2022/06/03 13:04:36;;;;;;;3.45;1.40;;;;;;;;;;5030965;28;20112;-74
2022/06/03 13:07:14;;;;;;;3.35;1.10;;;;;;;;;;5050422;28;20025;-75
2022/06/03 13:10:03;;;;;;;1.60;1.17;;;;;;;;;;5050729;28;20025;-75
2022/06/03 13:12:32;;;;;;;1.60;1.35;;;;;;;;;;5042935;28;20053;-75
2022/06/03 13:15:21;;;;;;;2.03;1.20;;;;;;;;;;5050868;28;20031;-75
2022/06/03 13:17:58;;;;;;;3.47;1.30;;;;;;;;;;4989163;28;20085;-74
2022/06/03 13:20:36;;;;;;;2.50;0.80;;;;;;;;;;4989093;28;20523;-78
2022/06/03 13:23:02;;;;;;;1.08;0.90;;;;;;;;;;4989070;28;20065;-78
2022/06/03 13:25:31;;;;;;;1.85;1.15;;;;;;;;;;4989053;28;20030;-77
2022/06/03 13:28:14;;;;;;;3.05;1.10;;;;;;;;;;4988851;28;20029;-78
2022/06/03 13:30:40;;;;;;;3.83;0.90;;;;;;;;;;4988478;28;20063;-78
2022/06/03 13:33:18;;;;;;;1.88;1.10;;;;;;;;;;4988600;28;20101;-78
2022/06/03 13:36:04;;;;;;;1.83;1.10;;;;;;;;;;4988306;28;20038;-78
2022/06/03 13:38:40;;;;;;;4.03;1.13;;;;;;;;;;4988547;28;20101;-79
2022/06/03 13:44:07;;;;;;;1.52;1.00;;;;;;;;;;4992566;28;20125;-78
2022/06/03 13:46:35;;;;;;;2.67;1.25;;;;;;;;;;4992795;28;20256;-78
2022/06/03 13:49:02;;;;;;;2.22;1.35;;;;;;;;;;4991415;28;20504;-78
2022/06/03 13:51:33;;;;;;;1.10;1.00;;;;;;;;;;4991780;28;20117;-79
2022/06/03 13:54:08;;;;;;;1.77;1.10;;;;;;;;;;4997124;28;20106;-79
2022/06/03 13:56:34;;;;;;;2.50;0.93;;;;;;;;;;5030961;28;20021;-81
2022/06/03 13:59:02;;;;;;;3.72;1.10;;;;;;;;;;5027448;28;20030;-77
2022/06/03 14:01:30;;;;;;;2.17;1.20;;;;;;;;;;5020424;28;20112;-78
2022/06/03 14:03:58;;;;;;;3.10;1.30;;;;;;;;;;5018679;28;20041;-78
2022/06/03 14:06:34;;;;;;;2.92;1.05;;;;;;;;;;5023274;28;20026;-77
2022/06/03 14:09:27;;;;;;;4.05;1.17;;;;;;;;;;5019900;28;20117;-79
2022/06/03 14:11:58;;;;;;;1.60;1.00;;;;;;;;;;5023460;28;20547;-79
2022/06/03 14:14:24;;;;;;;3.25;1.20;;;;;;;;;;5025813;28;20053;-78
2022/06/03 14:16:58;;;;;;;2.67;1.20;;;;;;;;;;5023390;28;20048;-78
2022/06/03 14:19:27;;;;;;;2.90;1.20;;;;;;;;;;5020669;28;20029;-78
2022/06/03 14:21:54;;;;;;;3.42;1.27;;;;;;;;;;5018279;28;20026;-78
2022/06/03 14:24:23;;;;;;;3.78;1.20;;;;;;;;;;5019158;28;20483;-78
2022/06/03 14:27:02;;;;;;;2.25;1.38;;;;;;;;;;5030486;28;20031;-78
2022/06/03 14:29:32;;;;;;;2.40;1.30;;;;;;;;;;5031402;28;20057;-78
2022/06/03 14:32:04;;;;;;;1.70;1.20;;;;;;;;;;5029328;28;20030;-78
2022/06/03 14:34:36;;;;;;;1.52;1.10;;;;;;;;;;5028281;28;20526;-79
2022/06/03 14:37:05;;;;;;;4.60;1.00;;;;;;;;;;5009563;28;20052;-79
2022/06/03 14:39:32;;;;;;;1.70;1.30;;;;;;;;;;5025443;28;20141;-78
2022/06/03 14:42:03;;;;;;;8.30;1.48;;;;;;;;;;5014836;28;20050;-78
2022/06/03 14:44:30;;;;;;;1.17;0.80;;;;;;;;;;4999954;28;20194;-78
2022/06/03 14:46:59;;;;;;;1.50;1.00;;;;;;;;;;5017519;28;20079;-79
2022/06/03 14:49:30;;;;;;;1.35;0.98;;;;;;;;;;5020745;28;20033;-80
2022/06/03 14:52:01;;;;;;;1.30;1.00;;;;;;;;;;5026669;28;20065;-78
2022/06/03 14:54:34;;;;;;;2.53;0.93;;;;;;;;;;5025305;28;20483;-78
2022/06/03 14:57:02;;;;;;;2.47;1.33;;;;;;;;;;5027972;28;20072;-78
2022/06/03 14:59:28;;;;;;;1.35;1.02;;;;;;;;;;5026247;28;20025;-78
2022/06/03 15:02:01;;;;;;;3.35;0.80;;;;;;;;;;5023970;28;20515;-77
2022/06/03 15:04:38;;;;;;;2.92;0.90;;;;;;;;;;5020220;28;20037;-77
2022/06/03 15:07:06;;;;;;;1.60;1.02;;;;;;;;;;5021505;28;20044;-77
2022/06/03 15:09:44;;;;;;;2.63;1.10;;;;;;;;;;5019034;28;20030;-77
2022/06/03 15:12:31;;;;;;;2.80;1.10;;;;;;;;;;5023004;28;20084;-76
2022/06/03 15:14:57;;;;;;;1.40;0.85;;;;;;;;;;5018390;28;20030;-76
2022/06/03 15:17:36;;;;;;;3.17;1.55;;;;;;;;;;5024903;28;20525;-77
2022/06/03 15:20:14;;;;;;;1.23;0.95;;;;;;;;;;5022605;28;20103;-78
2022/06/03 15:22:40;;;;;;;2.03;1.00;;;;;;;;;;5031238;28;20033;-79
2022/06/03 15:25:12;;;;;;;2.17;1.00;;;;;;;;;;5035126;28;20025;-80
2022/06/03 15:27:38;;;;;;;1.10;0.93;;;;;;;;;;5026883;28;20424;-80
2022/06/03 15:30:06;;;;;;;2.05;0.95;;;;;;;;;;5027023;28;20021;-78
2022/06/03 15:32:37;;;;;;;5.32;1.20;;;;;;;;;;5035015;28;20356;-77
2022/06/03 15:35:04;;;;;;;1.63;1.00;;;;;;;;;;5028613;28;20026;-77
2022/06/03 15:37:31;;;;;;;3.85;1.45;;;;;;;;;;5022928;28;20053;-77
2022/06/03 15:39:58;;;;;;;3.75;1.10;;;;;;;;;;5049477;28;20379;-76
2022/06/03 15:42:25;;;;;;;1.90;0.90;;;;;;;;;;5048885;28;20316;-77
2022/06/03 15:44:52;;;;;;;2.95;0.98;;;;;;;;;;5048314;28;20108;-80
2022/06/03 15:47:18;;;;;;;1.40;1.10;;;;;;;;;;5041470;28;20101;-80
2022/06/03 15:49:49;;;;;;;4.13;1.00;;;;;;;;;;5049939;28;20021;-79
2022/06/03 15:52:17;;;;;;;1.75;1.33;;;;;;;;;;5050192;28;20021;-79
2022/06/03 15:54:54;;;;;;;1.70;1.33;;;;;;;;;;5046933;28;20020;-80
2022/06/03 15:57:39;;;;;;;3.58;1.10;;;;;;;;;;5026195;28;20025;-79
2022/06/03 16:00:15;;;;;;;7.80;3.78;;;;;;;;;;5058656;28;20139;-79
2022/06/03 16:02:54;;;;;;;3.10;1.77;;;;;;;;;;5055304;28;20025;-79